Time;durP1;ratioP1;P1;durP2;ratioP2;P2;SDS_P1;SDS_P2;PMS_P1;PMS_P2;Temp;Humidity;BMP_temperature;BMP_pressure;BME280_temperature;BME280_humidity;BME280_pressure;Samples;Min_cycle;Max_cycle;Signal;HPM_P1;HPM_P2
2023/04/22 00:00:48;;;;;;;11.48;6.57;;;;;;;;;;4832640;29;20126;-81
2023/04/22 00:03:14;;;;;;;7.88;6.60;;;;;;;;;;4830873;29;20038;-80
2023/04/22 00:05:41;;;;;;;7.32;6.10;;;;;;;;;;4836477;29;20499;-80
2023/04/22 00:08:07;;;;;;;7.63;6.82;;;;;;;;;;4836568;29;20443;-80
2023/04/22 00:10:34;;;;;;;9.65;5.93;;;;;;;;;;4839210;29;20533;-80
2023/04/22 00:13:00;;;;;;;7.82;6.00;;;;;;;;;;4835623;29;20527;-80
2023/04/22 00:15:26;;;;;;;7.32;6.47;;;;;;;;;;4840187;29;20040;-79
2023/04/22 00:17:52;;;;;;;6.03;5.45;;;;;;;;;;4836979;29;20404;-80
2023/04/22 00:20:22;;;;;;;7.05;5.65;;;;;;;;;;4838706;29;20042;-80
2023/04/22 00:22:48;;;;;;;7.93;6.50;;;;;;;;;;4828314;29;20605;-80
2023/04/22 00:25:15;;;;;;;7.57;6.28;;;;;;;;;;4839554;29;20109;-80
2023/04/22 00:27:41;;;;;;;9.48;6.35;;;;;;;;;;4825786;29;20046;-80
2023/04/22 00:30:08;;;;;;;9.60;6.72;;;;;;;;;;4850207;29;20034;-80
2023/04/22 00:32:35;;;;;;;8.60;6.97;;;;;;;;;;4838384;29;20056;-81
2023/04/22 00:35:01;;;;;;;7.60;6.60;;;;;;;;;;4835709;29;20034;-80
2023/04/22 00:37:28;;;;;;;9.10;6.60;;;;;;;;;;4838448;29;20046;-81
2023/04/22 00:39:54;;;;;;;8.05;6.95;;;;;;;;;;4834375;29;20073;-80
2023/04/22 00:42:21;;;;;;;11.60;6.63;;;;;;;;;;4832390;29;20125;-81
2023/04/22 00:44:47;;;;;;;9.23;7.38;;;;;;;;;;4841058;29;20074;-80
2023/04/22 00:47:13;;;;;;;9.68;7.63;;;;;;;;;;4841001;29;20129;-80
2023/04/22 00:49:39;;;;;;;10.10;7.50;;;;;;;;;;4839755;29;20037;-80
2023/04/22 00:52:06;;;;;;;8.55;6.38;;;;;;;;;;4835189;29;20081;-80
2023/04/22 00:54:33;;;;;;;7.80;6.80;;;;;;;;;;4839876;29;20038;-81
2023/04/22 00:56:59;;;;;;;9.27;7.72;;;;;;;;;;4835008;29;20121;-80
2023/04/22 00:59:26;;;;;;;9.80;7.22;;;;;;;;;;4839880;29;20061;-81
2023/04/22 01:01:52;;;;;;;12.73;7.00;;;;;;;;;;4845991;29;20061;-80
2023/04/22 01:04:18;;;;;;;10.85;7.40;;;;;;;;;;4838606;29;20038;-80
2023/04/22 01:06:44;;;;;;;8.60;7.68;;;;;;;;;;4829255;29;20645;-79
2023/04/22 01:09:10;;;;;;;9.75;6.60;;;;;;;;;;4839888;29;20510;-80
2023/04/22 01:11:37;;;;;;;10.70;7.90;;;;;;;;;;4841623;29;20060;-80
2023/04/22 01:14:03;;;;;;;10.32;7.43;;;;;;;;;;4837109;29;20090;-80
2023/04/22 01:16:34;;;;;;;7.10;6.40;;;;;;;;;;4842734;29;20083;-79
2023/04/22 01:19:00;;;;;;;8.93;6.05;;;;;;;;;;4834943;29;20045;-79
2023/04/22 01:21:28;;;;;;;8.15;6.55;;;;;;;;;;4845720;29;20046;-79
2023/04/22 01:23:54;;;;;;;9.15;7.05;;;;;;;;;;4838859;29;20034;-79
2023/04/22 01:26:21;;;;;;;7.30;6.55;;;;;;;;;;4843816;29;20049;-80
2023/04/22 01:28:48;;;;;;;9.23;7.18;;;;;;;;;;4834919;29;20030;-80
2023/04/22 01:31:14;;;;;;;8.27;6.75;;;;;;;;;;4843673;29;20038;-80
2023/04/22 01:33:40;;;;;;;11.00;6.70;;;;;;;;;;4833852;29;20180;-80
2023/04/22 01:36:07;;;;;;;8.68;6.95;;;;;;;;;;4847738;29;20068;-80
2023/04/22 01:38:34;;;;;;;9.38;6.32;;;;;;;;;;4842696;29;20404;-81
2023/04/22 01:41:01;;;;;;;7.68;6.15;;;;;;;;;;4840768;29;20042;-81
2023/04/22 01:43:29;;;;;;;6.63;5.93;;;;;;;;;;4842690;29;20054;-81
2023/04/22 01:45:57;;;;;;;8.88;6.47;;;;;;;;;;4841550;29;20128;-80
2023/04/22 01:48:23;;;;;;;7.75;6.55;;;;;;;;;;4832158;29;20034;-81
2023/04/22 01:50:49;;;;;;;7.93;6.80;;;;;;;;;;4841600;29;20038;-80
2023/04/22 01:53:17;;;;;;;10.30;7.38;;;;;;;;;;4844701;29;20030;-80
2023/04/22 01:55:43;;;;;;;9.63;6.80;;;;;;;;;;4842030;29;20089;-80
2023/04/22 01:58:09;;;;;;;8.35;6.82;;;;;;;;;;4831277;29;20353;-80
2023/04/22 02:00:35;;;;;;;8.35;5.75;;;;;;;;;;4840088;29;20077;-81
2023/04/22 02:03:01;;;;;;;10.23;6.43;;;;;;;;;;4840600;29;20094;-80
2023/04/22 02:05:27;;;;;;;8.05;6.13;;;;;;;;;;4840881;29;20038;-79
2023/04/22 02:07:54;;;;;;;7.55;5.70;;;;;;;;;;4836696;29;20033;-80
2023/04/22 02:10:20;;;;;;;8.05;6.20;;;;;;;;;;4839940;29;20041;-79
2023/04/22 02:12:46;;;;;;;9.82;6.65;;;;;;;;;;4838618;29;20038;-80
2023/04/22 02:15:12;;;;;;;9.55;7.07;;;;;;;;;;4838539;29;20069;-80
2023/04/22 02:17:41;;;;;;;7.95;6.60;;;;;;;;;;4829604;29;20057;-80
2023/04/22 02:20:09;;;;;;;11.73;6.63;;;;;;;;;;4842203;29;20038;-80
2023/04/22 02:22:35;;;;;;;9.18;7.03;;;;;;;;;;4838563;29;20409;-79
2023/04/22 02:25:02;;;;;;;7.32;6.32;;;;;;;;;;4831956;29;20038;-79
2023/04/22 02:27:28;;;;;;;8.35;6.57;;;;;;;;;;4838216;29;20030;-79
2023/04/22 02:29:54;;;;;;;8.82;6.78;;;;;;;;;;4841245;29;20057;-79
2023/04/22 02:32:20;;;;;;;8.35;6.78;;;;;;;;;;4838268;29;20067;-79
2023/04/22 02:34:46;;;;;;;7.88;7.07;;;;;;;;;;4827068;29;20046;-80
2023/04/22 02:37:13;;;;;;;8.00;6.97;;;;;;;;;;4838674;29;20121;-80
2023/04/22 02:39:39;;;;;;;6.68;5.88;;;;;;;;;;4860897;29;20041;-80
2023/04/22 02:42:05;;;;;;;8.30;7.05;;;;;;;;;;4843797;29;20125;-80
2023/04/22 02:44:31;;;;;;;9.35;7.38;;;;;;;;;;4837442;29;20559;-80
2023/04/22 02:46:57;;;;;;;12.82;7.15;;;;;;;;;;4836911;29;20044;-80
2023/04/22 02:49:23;;;;;;;8.50;7.55;;;;;;;;;;4840018;29;20045;-80
2023/04/22 02:51:50;;;;;;;9.38;7.45;;;;;;;;;;4839665;29;20041;-81
2023/04/22 02:54:16;;;;;;;9.98;7.47;;;;;;;;;;4840541;29;20057;-80
2023/04/22 02:56:42;;;;;;;9.82;7.60;;;;;;;;;;4841283;29;20034;-81
2023/04/22 02:59:08;;;;;;;10.20;8.32;;;;;;;;;;4838817;29;20417;-81
2023/04/22 03:01:34;;;;;;;11.82;7.65;;;;;;;;;;4852695;29;20033;-80
2023/04/22 03:04:03;;;;;;;12.27;8.05;;;;;;;;;;4842402;29;20088;-80
2023/04/22 03:06:29;;;;;;;11.38;8.10;;;;;;;;;;4840655;29;20436;-80
2023/04/22 03:08:56;;;;;;;11.80;8.15;;;;;;;;;;4838991;29;20384;-80
2023/04/22 03:11:22;;;;;;;9.45;8.55;;;;;;;;;;4841172;29;20483;-80
2023/04/22 03:13:48;;;;;;;9.45;8.38;;;;;;;;;;4840538;29;20054;-80
2023/04/22 03:16:14;;;;;;;9.75;7.53;;;;;;;;;;4835752;29;20030;-80
2023/04/22 03:18:40;;;;;;;10.88;8.48;;;;;;;;;;4838022;29;20391;-79
2023/04/22 03:21:07;;;;;;;11.20;9.40;;;;;;;;;;4835497;29;20042;-79
2023/04/22 03:23:34;;;;;;;12.52;8.55;;;;;;;;;;4834196;29;20147;-80
2023/04/22 03:26:00;;;;;;;13.02;9.02;;;;;;;;;;4833415;29;20096;-79
2023/04/22 03:28:27;;;;;;;11.18;9.30;;;;;;;;;;4831587;29;20077;-79
2023/04/22 03:30:53;;;;;;;11.85;9.30;;;;;;;;;;4831848;29;20066;-79
2023/04/22 03:33:19;;;;;;;14.38;9.40;;;;;;;;;;4834184;29;20479;-79
2023/04/22 03:35:48;;;;;;;11.98;8.70;;;;;;;;;;4855506;29;20488;-78
2023/04/22 03:38:14;;;;;;;10.57;9.15;;;;;;;;;;4833468;29;20034;-79
2023/04/22 03:40:40;;;;;;;9.63;8.48;;;;;;;;;;4823702;29;20049;-79
2023/04/22 03:43:06;;;;;;;10.45;9.35;;;;;;;;;;4831425;29;20034;-79
2023/04/22 03:45:33;;;;;;;13.15;10.35;;;;;;;;;;4837567;29;20165;-79
2023/04/22 03:47:59;;;;;;;10.80;9.07;;;;;;;;;;4832820;29;20068;-79
2023/04/22 03:50:25;;;;;;;12.82;10.32;;;;;;;;;;4824277;29;20381;-79
2023/04/22 03:52:51;;;;;;;14.52;9.90;;;;;;;;;;4838996;29;20038;-79
2023/04/22 03:55:17;;;;;;;15.15;9.98;;;;;;;;;;4839989;29;20399;-78
2023/04/22 03:57:43;;;;;;;13.00;11.52;;;;;;;;;;4837782;29;20767;-79
2023/04/22 04:00:09;;;;;;;12.82;11.18;;;;;;;;;;4842014;29;20493;-79
2023/04/22 04:02:35;;;;;;;11.52;10.27;;;;;;;;;;4852664;29;20086;-80
2023/04/22 04:05:01;;;;;;;30.60;11.60;;;;;;;;;;4836986;29;20311;-79
2023/04/22 04:07:27;;;;;;;13.27;11.50;;;;;;;;;;4836684;29;20045;-79
2023/04/22 04:09:53;;;;;;;14.63;11.27;;;;;;;;;;4837040;29;20034;-79
2023/04/22 04:12:19;;;;;;;16.08;12.70;;;;;;;;;;4839742;29;20400;-79
2023/04/22 04:14:45;;;;;;;15.48;12.48;;;;;;;;;;4836384;29;20491;-79
2023/04/22 04:17:12;;;;;;;14.05;12.32;;;;;;;;;;4843915;29;20049;-79
2023/04/22 04:19:39;;;;;;;15.13;12.82;;;;;;;;;;4835921;29;20061;-79
2023/04/22 04:22:05;;;;;;;14.00;11.35;;;;;;;;;;4834124;29;20034;-78
2023/04/22 04:24:32;;;;;;;19.33;12.63;;;;;;;;;;4832195;29;20149;-79
2023/04/22 04:26:58;;;;;;;14.63;12.73;;;;;;;;;;4843853;29;20163;-79
2023/04/22 04:29:24;;;;;;;18.25;13.10;;;;;;;;;;4834154;29;20042;-79
2023/04/22 04:31:50;;;;;;;15.27;12.38;;;;;;;;;;4848999;29;20045;-79
2023/04/22 04:34:16;;;;;;;17.30;13.52;;;;;;;;;;4831505;29;20038;-79
2023/04/22 04:36:42;;;;;;;16.75;12.55;;;;;;;;;;4835244;29;20038;-79
2023/04/22 04:39:08;;;;;;;16.40;13.30;;;;;;;;;;4828859;29;20089;-79
2023/04/22 04:41:34;;;;;;;15.32;12.73;;;;;;;;;;4825524;29;20492;-79
2023/04/22 04:44:00;;;;;;;16.23;12.60;;;;;;;;;;4839575;29;20050;-80
2023/04/22 04:46:28;;;;;;;14.70;12.88;;;;;;;;;;4822654;29;20033;-79
2023/04/22 04:48:54;;;;;;;14.27;12.77;;;;;;;;;;4835318;29;20034;-79
2023/04/22 04:51:20;;;;;;;16.00;12.98;;;;;;;;;;4832357;29;20101;-74
2023/04/22 04:53:46;;;;;;;15.35;13.52;;;;;;;;;;4828934;29;20468;-81
2023/04/22 04:56:12;;;;;;;14.90;12.52;;;;;;;;;;4836681;29;20037;-81
2023/04/22 04:58:39;;;;;;;14.70;12.70;;;;;;;;;;4833073;29;20380;-83
2023/04/22 05:01:05;;;;;;;18.77;13.60;;;;;;;;;;4858332;29;20123;-80
2023/04/22 05:03:31;;;;;;;14.57;12.87;;;;;;;;;;4802477;29;1388816;-79
2023/04/22 05:05:57;;;;;;;22.88;17.35;;;;;;;;;;4835508;29;20078;-82
2023/04/22 05:08:24;;;;;;;18.00;15.07;;;;;;;;;;4842363;29;20041;-84
2023/04/22 05:10:51;;;;;;;17.65;13.90;;;;;;;;;;4846306;29;20044;-81
2023/04/22 05:13:17;;;;;;;16.23;13.93;;;;;;;;;;4840864;29;20581;-83
2023/04/22 05:15:43;;;;;;;16.90;12.30;;;;;;;;;;4835496;29;20034;-84
2023/04/22 05:18:09;;;;;;;16.00;12.70;;;;;;;;;;4845432;29;20407;-83
2023/04/22 05:20:35;;;;;;;14.45;12.88;;;;;;;;;;4847129;29;20099;-86
2023/04/22 05:23:01;;;;;;;15.23;12.95;;;;;;;;;;4847553;29;20091;-86
2023/04/22 05:25:27;;;;;;;16.17;13.02;;;;;;;;;;4875764;23;20050;-79
2023/04/22 05:27:53;;;;;;;18.02;14.15;;;;;;;;;;4841139;29;20042;-88
2023/04/22 05:30:20;;;;;;;16.73;13.38;;;;;;;;;;4821156;29;20039;-90
2023/04/22 05:32:46;;;;;;;17.90;12.93;;;;;;;;;;4825966;29;20027;-87
2023/04/22 05:35:12;;;;;;;14.57;13.00;;;;;;;;;;5073819;24;20049;-80
2023/04/22 05:37:38;;;;;;;16.50;13.50;;;;;;;;;;4843092;29;20100;-86
2023/04/22 05:40:05;;;;;;;14.30;12.82;;;;;;;;;;4835474;29;20038;-86
2023/04/22 05:42:31;;;;;;;15.27;13.55;;;;;;;;;;4837429;29;20060;-79
2023/04/22 05:44:58;;;;;;;18.58;14.48;;;;;;;;;;4837333;29;20113;-79
2023/04/22 05:47:24;;;;;;;17.00;14.45;;;;;;;;;;4838330;29;20062;-80
2023/04/22 05:49:52;;;;;;;18.30;14.45;;;;;;;;;;4835842;29;20034;-80
2023/04/22 05:52:18;;;;;;;16.08;13.95;;;;;;;;;;4827186;29;20098;-80
2023/04/22 05:54:44;;;;;;;15.00;13.25;;;;;;;;;;4837470;29;20546;-80
2023/04/22 05:57:10;;;;;;;15.88;13.52;;;;;;;;;;4829572;29;20117;-82
2023/04/22 05:59:36;;;;;;;17.00;14.43;;;;;;;;;;4836713;29;20048;-87
2023/04/22 06:02:03;;;;;;;17.63;15.35;;;;;;;;;;4842416;29;20117;-88
2023/04/22 06:04:29;;;;;;;17.25;14.35;;;;;;;;;;4843119;29;20634;-87
2023/04/22 06:06:55;;;;;;;15.98;14.27;;;;;;;;;;4852539;29;20034;-79
2023/04/22 06:09:21;;;;;;;16.35;14.60;;;;;;;;;;4847930;29;20109;-86
2023/04/22 06:11:48;;;;;;;18.80;14.75;;;;;;;;;;4849926;29;20040;-84
2023/04/22 06:14:14;;;;;;;19.98;15.20;;;;;;;;;;4830504;29;20496;-82
2023/04/22 06:16:40;;;;;;;17.92;15.95;;;;;;;;;;4838994;29;20495;-79
2023/04/22 06:19:08;;;;;;;22.95;14.82;;;;;;;;;;4841364;29;20098;-78
2023/04/22 06:27:41;;;;;;;16.20;13.02;;;;;;;;;;4831240;29;20040;-81
2023/04/22 06:30:08;;;;;;;14.90;12.57;;;;;;;;;;4835818;29;20125;-77
2023/04/22 06:32:35;;;;;;;14.38;12.65;;;;;;;;;;4834795;29;20038;-78
2023/04/22 06:35:01;;;;;;;18.77;13.18;;;;;;;;;;4826653;29;20041;-78
2023/04/22 06:37:27;;;;;;;15.45;12.88;;;;;;;;;;4830774;29;20074;-77
2023/04/22 06:39:54;;;;;;;15.98;12.95;;;;;;;;;;4837742;29;20160;-76
2023/04/22 06:42:20;;;;;;;14.27;12.57;;;;;;;;;;4834630;29;20428;-78
2023/04/22 06:44:47;;;;;;;13.85;12.45;;;;;;;;;;4836275;29;20159;-78
2023/04/22 06:47:14;;;;;;;14.63;11.07;;;;;;;;;;4840718;29;20090;-83
2023/04/22 06:49:41;;;;;;;13.10;11.73;;;;;;;;;;4830669;29;20360;-72
2023/04/22 06:52:08;;;;;;;14.70;12.30;;;;;;;;;;4834974;29;20380;-75
2023/04/22 06:54:34;;;;;;;20.85;12.95;;;;;;;;;;4838000;29;20031;-77
2023/04/22 06:57:02;;;;;;;16.13;12.88;;;;;;;;;;4841938;29;20040;-76
2023/04/22 06:59:33;;;;;;;17.80;13.55;;;;;;;;;;4836017;29;20033;-79
2023/04/22 07:01:59;;;;;;;16.45;13.00;;;;;;;;;;4840226;29;20463;-80
2023/04/22 07:04:28;;;;;;;14.95;12.68;;;;;;;;;;4825385;29;20137;-79
2023/04/22 07:06:57;;;;;;;13.98;10.98;;;;;;;;;;4820682;29;20049;-78
2023/04/22 07:09:23;;;;;;;13.27;11.85;;;;;;;;;;4839920;29;20067;-77
2023/04/22 07:11:49;;;;;;;13.70;11.68;;;;;;;;;;4836538;29;20379;-75
2023/04/22 07:14:15;;;;;;;23.17;11.68;;;;;;;;;;4840510;29;20467;-74
2023/04/22 07:16:41;;;;;;;12.93;11.63;;;;;;;;;;4835888;29;20515;-75
2023/04/22 07:19:07;;;;;;;15.45;11.82;;;;;;;;;;4822497;29;20044;-74
2023/04/22 07:21:33;;;;;;;13.95;12.38;;;;;;;;;;4837511;29;20472;-77
2023/04/22 07:23:59;;;;;;;14.57;11.90;;;;;;;;;;4837757;29;20073;-79
2023/04/22 07:26:25;;;;;;;13.40;11.40;;;;;;;;;;4836899;29;20426;-81
2023/04/22 07:28:51;;;;;;;12.70;11.15;;;;;;;;;;4839242;29;20036;-83
2023/04/22 07:31:17;;;;;;;14.40;12.70;;;;;;;;;;4834304;29;20037;-79
2023/04/22 07:33:43;;;;;;;14.45;12.20;;;;;;;;;;4846987;29;20124;-76
2023/04/22 07:36:10;;;;;;;13.38;11.70;;;;;;;;;;4829569;29;20039;-76
2023/04/22 07:38:36;;;;;;;14.40;12.60;;;;;;;;;;4823884;29;20045;-78
2023/04/22 07:41:04;;;;;;;15.88;12.63;;;;;;;;;;4837970;29;20108;-84
2023/04/22 07:43:30;;;;;;;13.07;11.45;;;;;;;;;;4826506;29;20488;-78
2023/04/22 07:45:56;;;;;;;17.33;13.93;;;;;;;;;;4830829;29;20506;-78
2023/04/22 07:48:22;;;;;;;14.05;12.38;;;;;;;;;;4833936;29;20038;-79
2023/04/22 07:50:48;;;;;;;20.65;15.82;;;;;;;;;;4837803;29;20392;-80
2023/04/22 07:53:16;;;;;;;14.20;12.63;;;;;;;;;;4835517;29;20112;-75
2023/04/22 07:55:42;;;;;;;14.63;12.68;;;;;;;;;;4843218;29;20030;-77
2023/04/22 07:58:08;;;;;;;14.18;12.10;;;;;;;;;;4843712;29;20499;-78
2023/04/22 08:00:34;;;;;;;12.95;11.52;;;;;;;;;;4839416;29;20056;-78
2023/04/22 08:03:01;;;;;;;14.45;12.18;;;;;;;;;;4839489;29;20132;-79
2023/04/22 08:05:27;;;;;;;13.02;11.55;;;;;;;;;;4833874;29;20038;-79
2023/04/22 08:07:53;;;;;;;13.50;12.10;;;;;;;;;;4852598;29;20552;-79
2023/04/22 08:10:19;;;;;;;14.35;12.70;;;;;;;;;;4839433;29;20065;-77
2023/04/22 08:12:46;;;;;;;13.70;10.63;;;;;;;;;;4841996;29;20153;-82
2023/04/22 08:15:12;;;;;;;13.25;11.70;;;;;;;;;;4847686;29;20039;-81
2023/04/22 08:17:38;;;;;;;13.43;11.85;;;;;;;;;;4849945;29;20437;-77
2023/04/22 08:20:04;;;;;;;13.38;11.98;;;;;;;;;;4848219;29;20063;-80
2023/04/22 08:22:32;;;;;;;14.55;11.30;;;;;;;;;;4836225;29;20042;-79
2023/04/22 08:24:58;;;;;;;12.57;11.27;;;;;;;;;;4840899;29;20026;-80
2023/04/22 08:27:25;;;;;;;13.35;11.05;;;;;;;;;;4840805;29;20086;-79
2023/04/22 08:29:51;;;;;;;13.02;11.50;;;;;;;;;;4845571;29;20041;-79
2023/04/22 08:32:18;;;;;;;12.43;11.13;;;;;;;;;;4843402;29;20049;-79
2023/04/22 08:34:44;;;;;;;15.57;11.45;;;;;;;;;;4842377;29;20042;-80
2023/04/22 08:37:11;;;;;;;12.88;11.10;;;;;;;;;;4836888;29;20058;-78
2023/04/22 08:39:37;;;;;;;12.57;10.77;;;;;;;;;;4841846;29;20069;-83
2023/04/22 08:42:03;;;;;;;13.25;11.32;;;;;;;;;;4844919;29;20045;-86
2023/04/22 08:44:29;;;;;;;13.88;11.32;;;;;;;;;;4829798;29;20046;-76
2023/04/22 08:46:55;;;;;;;11.20;9.93;;;;;;;;;;4835248;29;20111;-78
2023/04/22 08:49:23;;;;;;;15.77;11.75;;;;;;;;;;4842931;29;20539;-75
2023/04/22 08:51:49;;;;;;;12.90;11.25;;;;;;;;;;4832959;29;20111;-78
2023/04/22 08:54:15;;;;;;;12.43;11.10;;;;;;;;;;4836088;29;21705;-77
2023/04/22 08:56:43;;;;;;;13.75;10.82;;;;;;;;;;4829833;29;20035;-76
2023/04/22 08:59:10;;;;;;;12.45;9.75;;;;;;;;;;4839799;29;20097;-76
2023/04/22 09:01:37;;;;;;;30.80;22.30;;;;;;;;;;4829414;29;20071;-77
2023/04/22 09:04:04;;;;;;;12.20;9.98;;;;;;;;;;4839897;29;20049;-79
2023/04/22 09:06:31;;;;;;;11.40;10.20;;;;;;;;;;4834673;29;20061;-78
2023/04/22 09:08:58;;;;;;;10.65;9.55;;;;;;;;;;4839226;29;20065;-75
2023/04/22 09:11:26;;;;;;;11.27;9.25;;;;;;;;;;4824681;29;20033;-74
2023/04/22 09:13:53;;;;;;;11.07;9.18;;;;;;;;;;4838229;29;20034;-76
2023/04/22 09:16:19;;;;;;;14.07;10.25;;;;;;;;;;4840688;29;20062;-76
2023/04/22 09:18:45;;;;;;;9.77;8.82;;;;;;;;;;4832488;29;20058;-78
2023/04/22 09:21:11;;;;;;;10.48;9.20;;;;;;;;;;4834945;29;20045;-79
2023/04/22 09:23:51;;;;;;;9.93;8.80;;;;;;;;;;4836676;29;20545;-80
2023/04/22 09:26:21;;;;;;;11.43;9.65;;;;;;;;;;4836492;29;20109;-79
2023/04/22 09:28:49;;;;;;;10.10;9.10;;;;;;;;;;4840451;29;20117;-78
2023/04/22 09:31:16;;;;;;;12.15;9.32;;;;;;;;;;4838478;29;20064;-80
2023/04/22 09:33:43;;;;;;;9.63;8.63;;;;;;;;;;4839984;29;20114;-82
2023/04/22 09:36:09;;;;;;;10.70;8.68;;;;;;;;;;4846235;29;20045;-82
2023/04/22 09:38:35;;;;;;;10.07;8.95;;;;;;;;;;4838896;29;20022;-79
2023/04/22 09:41:08;;;;;;;10.15;9.07;;;;;;;;;;4832223;29;20041;-80
2023/04/22 09:43:34;;;;;;;11.38;9.00;;;;;;;;;;4838034;29;20067;-82
2023/04/22 09:46:00;;;;;;;9.30;8.15;;;;;;;;;;4857580;29;20034;-83
2023/04/22 09:48:26;;;;;;;11.38;8.30;;;;;;;;;;4855793;29;20448;-84
2023/04/22 09:50:52;;;;;;;11.57;10.27;;;;;;;;;;4862216;29;20096;-85
2023/04/22 09:53:19;;;;;;;12.95;11.27;;;;;;;;;;4840870;29;20117;-79
2023/04/22 09:55:47;;;;;;;9.07;7.63;;;;;;;;;;4846048;29;20090;-76
2023/04/22 09:58:14;;;;;;;9.10;7.63;;;;;;;;;;4830386;29;20050;-74
2023/04/22 10:00:43;;;;;;;9.75;7.97;;;;;;;;;;4830475;29;20496;-75
2023/04/22 10:03:09;;;;;;;9.80;8.80;;;;;;;;;;4837731;29;20033;-76
2023/04/22 10:05:37;;;;;;;9.50;8.10;;;;;;;;;;4837118;29;20030;-77
2023/04/22 10:08:07;;;;;;;8.27;7.43;;;;;;;;;;4834102;29;20444;-76
2023/04/22 10:10:36;;;;;;;8.57;7.60;;;;;;;;;;4836251;29;20392;-76
2023/04/22 10:13:05;;;;;;;8.82;7.78;;;;;;;;;;4838328;29;20026;-76
2023/04/22 10:15:32;;;;;;;30.48;22.65;;;;;;;;;;4841389;29;20037;-83
2023/04/22 10:17:58;;;;;;;57.58;46.28;;;;;;;;;;4849428;29;20040;-82
2023/04/22 10:20:27;;;;;;;8.02;6.95;;;23.50;99.90;;;;;;4852170;29;20057;-80
2023/04/22 10:22:54;;;;;;;8.27;6.82;;;;;;;;;;4844675;29;20137;-78
2023/04/22 10:25:24;;;;;;;10.52;7.85;;;;;;;;;;4840979;29;20517;-78
2023/04/22 10:28:09;;;;;;;8.10;6.97;;;;;;;;;;4841669;29;20037;-79
2023/04/22 10:30:38;;;;;;;7.32;6.63;;;;;;;;;;4845237;29;20026;-78
2023/04/22 10:33:30;;;;;;;7.97;6.88;;;;;;;;;;4848416;29;20417;-78
2023/04/22 10:36:08;;;;;;;8.27;6.55;;;;;;;;;;4840429;29;20521;-77
2023/04/22 10:38:35;;;;;;;7.68;6.18;;;;;;;;;;4840007;29;20042;-78
2023/04/22 10:41:02;;;;;;;6.28;5.68;;;;;;;;;;4848802;29;20041;-79
2023/04/22 10:43:41;;;;;;;6.78;6.07;;;;;;;;;;4833849;29;20091;-75
2023/04/22 10:46:07;;;;;;;8.93;6.90;;;;;;;;;;4834122;29;20038;-76
2023/04/22 10:48:51;;;;;;;8.07;6.72;;;;;;;;;;4840099;29;20065;-75
2023/04/22 10:51:36;;;;;;;10.52;6.30;;;;;;;;;;4842009;29;20401;-76
2023/04/22 10:54:02;;;;;;;8.85;6.95;;;;;;;;;;4830182;29;20042;-75
2023/04/22 10:56:28;;;;;;;6.43;5.82;;;;;;;;;;4842189;29;20041;-74
2023/04/22 10:58:55;;;;;;;18.60;14.13;;;;;;;;;;4832451;29;20034;-75
2023/04/22 11:01:22;;;;;;;12.27;11.05;;;;;;;;;;4836196;29;20042;-76
2023/04/22 11:03:48;;;;;;;6.15;5.57;;;;;;;;;;4832371;29;20091;-74
2023/04/22 11:06:15;;;;;;;6.47;5.88;;;;;;;;;;4851588;29;20514;-77
2023/04/22 11:08:48;;;;;;;7.00;5.38;;;24.00;99.90;;;;;;4839027;29;20101;-77
2023/04/22 11:11:17;;;;;;;6.35;5.20;;;24.40;99.90;;;;;;4839154;29;20074;-78
2023/04/22 11:13:44;;;;;;;6.22;5.43;;;;;;;;;;4850842;29;20041;-78
2023/04/22 11:16:12;;;;;;;5.60;5.05;;;;;;;;;;4862920;29;20054;-78
2023/04/22 11:18:38;;;;;;;6.28;5.13;;;;;;;;;;4835685;29;20045;-78
2023/04/22 11:21:05;;;;;;;8.15;6.25;;;23.60;99.90;;;;;;4827778;29;20038;-79
2023/04/22 11:23:31;;;;;;;6.88;5.28;;;;;;;;;;4840007;29;20071;-77
2023/04/22 11:26:00;;;;;;;5.10;4.60;;;23.00;99.90;;;;;;4842393;29;20118;-79
2023/04/22 11:28:26;;;;;;;7.18;4.90;;;;;;;;;;4836597;29;20479;-78
2023/04/22 11:30:52;;;;;;;9.60;5.35;;;;;;;;;;4845451;29;20085;-78
2023/04/22 11:33:19;;;;;;;7.05;5.15;;;;;;;;;;4842681;29;20029;-79
2023/04/22 11:35:49;;;;;;;5.38;4.88;;;23.10;99.90;;;;;;4854812;29;20050;-79
2023/04/22 11:38:15;;;;;;;5.93;5.35;;;;;;;;;;4840063;29;20042;-78
2023/04/22 11:40:42;;;;;;;6.15;5.55;;;;;;;;;;4841772;29;20030;-78
2023/04/22 11:43:09;;;;;;;8.18;6.18;;;;;;;;;;4840327;29;20029;-78
2023/04/22 11:45:36;;;;;;;7.28;6.05;;;;;;;;;;4833508;29;20121;-77
2023/04/22 11:48:03;;;;;;;9.00;5.55;;;22.80;99.90;;;;;;4839694;29;20034;-79
2023/04/22 11:50:35;;;;;;;8.00;6.00;;;22.70;99.90;;;;;;4841143;29;20026;-77
2023/04/22 11:53:04;;;;;;;5.90;5.00;;;22.50;99.90;;;;;;4835863;29;20030;-77
2023/04/22 11:55:37;;;;;;;5.95;5.45;;;22.30;99.90;;;;;;4821334;29;20492;-78
2023/04/22 11:58:09;;;;;;;6.68;5.28;;;22.30;99.90;;;;;;4841416;29;20029;-81
2023/04/22 12:00:36;;;;;;;9.85;4.57;;;;;;;;;;4840271;29;20030;-78
2023/04/22 12:03:04;;;;;;;5.22;4.68;;;;;;;;;;4852225;29;20061;-78
2023/04/22 12:05:35;;;;;;;7.53;5.18;;;21.80;99.90;;;;;;4845307;29;20036;-78
2023/04/22 12:08:05;;;;;;;9.20;4.43;;;21.60;99.90;;;;;;4840004;29;20102;-77
2023/04/22 12:10:31;;;;;;;7.55;5.38;;;;;;;;;;4836326;29;20025;-77
2023/04/22 12:12:58;;;;;;;5.70;4.50;;;;;;;;;;4838881;29;20515;-77
2023/04/22 12:15:24;;;;;;;5.20;4.38;;;;;;;;;;4839741;29;20049;-78
2023/04/22 12:17:51;;;;;;;7.75;4.50;;;;;;;;;;4823267;29;20045;-77
2023/04/22 12:20:17;;;;;;;5.97;4.97;;;;;;;;;;4836838;29;20030;-77
2023/04/22 12:22:43;;;;;;;6.47;5.03;;;;;;;;;;4840684;29;20042;-78
2023/04/22 12:25:11;;;;;;;7.15;5.30;;;;;;;;;;4840792;29;20052;-77
2023/04/22 12:27:37;;;;;;;8.57;5.15;;;;;;;;;;4839703;29;20037;-78
2023/04/22 12:30:03;;;;;;;5.47;4.78;;;;;;;;;;4829959;29;20482;-78
2023/04/22 12:32:30;;;;;;;6.18;4.80;;;21.50;99.90;;;;;;4837502;29;20061;-78
2023/04/22 12:34:56;;;;;;;6.50;5.30;;;;;;;;;;4835104;29;20133;-78
2023/04/22 12:37:22;;;;;;;8.10;5.38;;;;;;;;;;4833246;29;20066;-77
2023/04/22 12:39:48;;;;;;;7.53;5.80;;;;;;;;;;4839158;29;20053;-77
2023/04/22 12:42:14;;;;;;;18.25;9.30;;;;;;;;;;4835959;29;20034;-76
2023/04/22 12:44:42;;;;;;;9.35;6.75;;;;;;;;;;4825321;29;20045;-77
2023/04/22 12:47:08;;;;;;;8.25;5.65;;;;;;;;;;4831198;29;20038;-76
2023/04/22 12:49:35;;;;;;;8.25;6.03;;;;;;;;;;4834653;29;20062;-79
2023/04/22 12:52:01;;;;;;;8.52;6.18;;;;;;;;;;4839641;29;20045;-79
2023/04/22 12:54:27;;;;;;;7.05;5.53;;;;;;;;;;4848469;29;20552;-76
2023/04/22 12:56:54;;;;;;;7.15;6.05;;;;;;;;;;4849847;29;20034;-77
2023/04/22 12:59:20;;;;;;;7.93;6.28;;;;;;;;;;4837566;29;20115;-77
2023/04/22 13:01:46;;;;;;;5.90;5.07;;;;;;;;;;4850211;29;20045;-77
2023/04/22 13:04:12;;;;;;;7.63;5.60;;;;;;;;;;4841305;29;20175;-77
2023/04/22 13:06:40;;;;;;;8.60;5.30;;;;;;;;;;4838481;29;20050;-77
2023/04/22 13:09:07;;;;;;;6.80;5.53;;;;;;;;;;4837535;29;20491;-77
2023/04/22 13:11:33;;;;;;;5.90;4.90;;;;;;;;;;4840563;29;20042;-77
2023/04/22 13:13:59;;;;;;;7.82;6.00;;;;;;;;;;4839051;29;20487;-77
2023/04/22 13:16:27;;;;;;;7.50;5.78;;;;;;;;;;4838485;29;20053;-77
2023/04/22 13:18:53;;;;;;;8.13;5.75;;;;;;;;;;4837607;29;20404;-77
2023/04/22 13:21:19;;;;;;;9.02;6.38;;;;;;;;;;4840448;29;20046;-77
2023/04/22 13:23:46;;;;;;;6.68;5.95;;;;;;;;;;4834902;29;20042;-76
2023/04/22 13:26:13;;;;;;;7.45;5.72;;;;;;;;;;4836492;29;20098;-76
2023/04/22 13:28:39;;;;;;;10.00;5.57;;;;;;;;;;4834756;29;20043;-77
2023/04/22 13:31:05;;;;;;;10.25;6.05;;;;;;;;;;4826213;29;20035;-77
2023/04/22 13:33:31;;;;;;;8.40;5.88;;;;;;;;;;4836281;29;20415;-77
2023/04/22 13:35:57;;;;;;;10.35;5.78;;;;;;;;;;4839509;29;20030;-76
2023/04/22 13:38:23;;;;;;;6.93;6.00;;;;;;;;;;4838916;29;20448;-76
2023/04/22 13:40:49;;;;;;;11.32;5.47;;;;;;;;;;4821673;29;20030;-77
2023/04/22 13:43:15;;;;;;;7.85;6.10;;;;;;;;;;4830492;29;20038;-76
2023/04/22 13:45:42;;;;;;;7.47;6.57;;;;;;;;;;4835826;29;20412;-80
2023/04/22 13:48:11;;;;;;;14.43;7.95;;;;;;;;;;4847925;29;20567;-83
2023/04/22 13:50:41;;;;;;;27.90;11.52;;;;;;;;;;4846205;29;20053;-88
2023/04/22 13:53:08;;;;;;;15.05;10.73;;;;;;;;;;4850697;29;20059;-84
2023/04/22 13:55:35;;;;;;;14.40;10.32;;;;;;;;;;4825163;29;20042;-83
2023/04/22 13:58:01;;;;;;;17.77;11.15;;;;;;;;;;4824016;29;20037;-82
2023/04/22 14:00:27;;;;;;;13.27;10.25;;;;;;;;;;4826985;29;20034;-81
2023/04/22 14:02:56;;;;;;;13.05;10.18;;;;;;;;;;4857624;29;20045;-80
2023/04/22 14:05:22;;;;;;;18.00;10.70;;;;;;;;;;4844093;29;20038;-81
2023/04/22 14:07:49;;;;;;;16.73;11.65;;;;;;;;;;4838336;29;20038;-83
2023/04/22 14:10:19;;;;;;;14.52;12.13;;;;;;;;;;4842847;29;20105;-84
2023/04/22 14:12:45;;;;;;;17.67;13.25;;;;;;;;;;4841599;29;20095;-82
2023/04/22 14:15:14;;;;;;;19.35;15.25;;;;;;;;;;4845268;29;20038;-83
2023/04/22 14:17:40;;;;;;;27.08;16.50;;;;;;;;;;4843229;29;20052;-82
2023/04/22 14:20:07;;;;;;;18.83;14.52;;;;;;;;;;4837304;29;20040;-82
2023/04/22 14:22:33;;;;;;;19.52;15.45;;;;;;;;;;4857311;29;20094;-81
2023/04/22 14:25:00;;;;;;;22.13;17.58;;;;;;;;;;4841770;29;20113;-81
2023/04/22 14:27:26;;;;;;;20.92;17.77;;;;;;;;;;4859577;29;20089;-80
2023/04/22 14:29:52;;;;;;;20.02;17.88;;;;;;;;;;4844734;29;20556;-81